createdAt,value
2019-02-06T00:02:17.541Z,70.40
2019-02-06T00:07:13.402Z,72.20
2019-02-06T00:09:41.651Z,71.10
2019-02-06T00:14:37.941Z,72.00
2019-02-06T00:17:05.957Z,72.30
2019-02-06T00:19:34.883Z,72.20
2019-02-06T00:22:03.100Z,71.80
2019-02-06T00:27:01.144Z,71.10
2019-02-06T00:29:29.452Z,71.00
2019-02-06T00:31:58.080Z,71.00
2019-02-06T00:34:27.085Z,71.00
2019-02-06T00:36:55.257Z,71.50
2019-02-06T00:39:23.908Z,71.10
2019-02-06T00:41:52.226Z,71.80
2019-02-06T00:44:20.650Z,71.90
2019-02-06T00:46:48.476Z,71.60
2019-02-06T00:51:44.932Z,71.60
2019-02-06T00:54:13.312Z,71.50
2019-02-06T00:56:44.888Z,71.60
2019-02-06T00:59:12.816Z,71.80
2019-02-06T01:01:44.121Z,71.60
2019-02-06T01:04:12.149Z,72.10
2019-02-06T01:06:40.752Z,71.90
2019-02-06T01:09:09.702Z,71.50
2019-02-06T01:11:38.037Z,71.70
2019-02-06T01:14:06.366Z,71.90
2019-02-06T01:19:02.228Z,72.20
2019-02-06T01:21:30.437Z,72.20
2019-02-06T01:23:58.666Z,72.30
2019-02-06T01:26:28.515Z,72.80
2019-02-06T01:28:56.395Z,72.70
2019-02-06T01:31:25.905Z,72.90
2019-02-06T01:33:54.161Z,72.70
2019-02-06T01:36:22.105Z,72.50
2019-02-06T01:38:50.011Z,72.50
2019-02-06T01:43:45.051Z,72.90
2019-02-06T01:51:12.076Z,72.70
2019-02-06T01:53:40.242Z,72.70
2019-02-06T01:56:08.632Z,73.80
2019-02-06T01:58:37.007Z,74.10
2019-02-06T02:03:33.163Z,73.50
2019-02-06T02:06:02.623Z,73.60
2019-02-06T02:08:33.935Z,73.50
2019-02-06T02:11:03.524Z,73.30
2019-02-06T02:13:32.318Z,73.70
2019-02-06T02:30:50.940Z,74.50
2019-02-06T02:33:19.327Z,74.90
2019-02-06T02:35:47.615Z,75.10
2019-02-06T02:38:15.980Z,74.90
2019-02-06T02:40:44.277Z,74.00
2019-02-06T02:43:13.053Z,73.90
2019-02-06T02:45:42.031Z,75.50
2019-02-06T02:48:09.573Z,74.60
2019-02-06T02:50:37.786Z,74.60
2019-02-06T02:53:05.950Z,74.60
2019-02-06T02:58:02.909Z,74.30
2019-02-06T03:00:55.656Z,74.80
2019-02-06T03:03:36.229Z,74.00
2019-02-06T03:06:06.165Z,74.80
2019-02-06T03:08:34.625Z,75.50
2019-02-06T03:11:02.184Z,75.40
2019-02-06T03:13:30.097Z,75.40
2019-02-06T03:15:58.432Z,75.40
2019-02-06T03:18:26.691Z,75.90
2019-02-06T03:20:55.187Z,76.00
2019-02-06T03:23:24.175Z,76.10
2019-02-06T03:28:19.707Z,75.60
2019-02-06T03:30:47.755Z,75.50
2019-02-06T03:33:15.390Z,74.80
2019-02-06T03:35:43.210Z,75.30
2019-02-06T03:40:39.274Z,75.50
2019-02-06T03:43:06.827Z,75.30
2019-02-06T03:45:35.004Z,75.50
2019-02-06T03:52:58.511Z,75.30
2019-02-06T03:55:26.344Z,76.30
2019-02-06T03:57:54.251Z,76.20
2019-02-06T04:00:22.161Z,76.10
2019-02-06T04:02:50.682Z,76.50
2019-02-06T04:05:20.073Z,75.30
2019-02-06T04:07:48.352Z,75.60
2019-02-06T04:10:15.895Z,75.90
2019-02-06T04:12:44.403Z,76.50
2019-02-06T04:17:40.852Z,76.80
2019-02-06T04:22:36.883Z,76.70
2019-02-06T04:25:05.087Z,77.00
2019-02-06T04:27:34.146Z,77.00
2019-02-06T04:30:02.756Z,76.90
2019-02-06T04:32:31.169Z,77.00
2019-02-06T04:34:59.379Z,76.60
2019-02-06T04:37:27.278Z,77.10
2019-02-06T04:39:55.459Z,77.00
2019-02-06T04:42:23.624Z,76.80
2019-02-06T04:44:51.803Z,77.00
2019-02-06T04:49:48.072Z,77.60
2019-02-06T04:52:16.640Z,77.70
2019-02-06T04:54:47.209Z,77.20
2019-02-06T04:57:15.482Z,76.10
2019-02-06T04:59:42.766Z,75.80
2019-02-06T05:02:11.395Z,76.80
2019-02-06T05:04:40.010Z,76.90
2019-02-06T05:07:18.650Z,77.00
2019-02-06T05:12:09.531Z,77.30
2019-02-06T05:14:36.737Z,77.80
2019-02-06T05:17:04.726Z,77.60
2019-02-06T05:19:32.625Z,77.80
2019-02-06T05:22:01.359Z,77.70
2019-02-06T05:24:29.565Z,77.60
2019-02-06T05:26:57.602Z,77.50
2019-02-06T05:29:25.828Z,77.80
2019-02-06T05:31:53.257Z,77.80
2019-02-06T05:39:19.819Z,78.10
2019-02-06T05:41:47.707Z,77.30
2019-02-06T05:44:15.606Z,77.50
2019-02-06T05:49:11.788Z,76.50
2019-02-06T05:51:39.374Z,76.20
2019-02-06T05:54:07.329Z,76.80
2019-02-06T05:56:36.422Z,76.80
2019-02-06T05:59:06.012Z,75.90
2019-02-06T06:01:34.699Z,76.50
2019-02-06T06:04:02.065Z,77.00
2019-02-06T06:06:30.472Z,77.50
2019-02-06T06:08:58.924Z,77.60
2019-02-06T06:11:27.233Z,77.70
2019-02-06T06:16:24.289Z,77.40
2019-02-06T06:26:16.204Z,75.70
2019-02-06T06:33:39.575Z,75.40
2019-02-06T06:38:36.513Z,75.40
2019-02-06T06:43:33.953Z,75.20
2019-02-06T06:48:30.866Z,75.40
2019-02-06T06:53:27.727Z,75.40
2019-02-06T06:58:23.729Z,75.30
2019-02-06T07:00:51.673Z,75.30
2019-02-06T07:03:19.294Z,75.60
2019-02-06T07:13:11.163Z,76.80
2019-02-06T07:18:07.451Z,76.60
2019-02-06T07:20:35.791Z,75.90
2019-02-06T07:23:04.288Z,76.50
2019-02-06T07:27:59.130Z,76.00
2019-02-06T07:30:29.219Z,75.80
2019-02-06T07:32:56.797Z,75.30
2019-02-06T07:35:24.823Z,75.50
2019-02-06T07:37:54.966Z,75.40
2019-02-06T07:40:23.140Z,75.50
2019-02-06T07:42:52.040Z,75.60
2019-02-06T07:45:21.246Z,75.50
2019-02-06T07:57:43.799Z,74.30
2019-02-06T08:00:11.902Z,74.60
2019-02-06T08:05:12.118Z,74.80
2019-02-06T08:12:38.586Z,73.90
2019-02-06T08:15:08.246Z,73.80
2019-02-06T08:29:56.333Z,72.30
2019-02-06T08:32:24.010Z,71.70
2019-02-06T08:34:51.603Z,71.80
2019-02-06T08:37:18.944Z,71.80
2019-02-06T08:39:47.335Z,71.80
2019-02-06T08:42:15.312Z,71.90
2019-02-06T08:44:43.886Z,71.70
2019-02-06T08:47:12.589Z,71.60
2019-02-06T08:49:40.855Z,71.50
2019-02-06T08:52:13.399Z,71.00
2019-02-06T08:54:40.754Z,71.70
2019-02-06T08:59:37.033Z,70.80
2019-02-06T09:02:05.914Z,70.10
2019-02-06T09:04:35.079Z,70.20
2019-02-06T09:07:02.862Z,69.60
2019-02-06T09:09:31.158Z,68.80
2019-02-06T09:11:59.864Z,68.50
2019-02-06T09:14:28.448Z,67.80
2019-02-06T09:16:57.495Z,67.80
2019-02-06T09:19:25.755Z,67.10
2019-02-06T09:21:53.783Z,67.30
2019-02-06T09:24:21.649Z,66.30
2019-02-06T09:26:48.963Z,65.40
2019-02-06T09:29:17.439Z,64.50
2019-02-06T09:31:45.927Z,64.30
2019-02-06T09:34:16.222Z,64.00
2019-02-06T09:39:12.820Z,64.00
2019-02-06T09:41:40.984Z,62.90
2019-02-06T09:44:08.555Z,62.50
2019-02-06T09:46:36.836Z,62.30
2019-02-06T09:49:04.985Z,62.00
2019-02-06T09:51:33.136Z,60.50
2019-02-06T09:56:28.319Z,60.90
2019-02-06T10:13:43.961Z,55.90
2019-02-06T10:16:12.696Z,55.00
2019-02-06T10:18:42.674Z,54.20
2019-02-06T10:21:10.651Z,53.90
2019-02-06T10:26:06.927Z,53.90
2019-02-06T10:28:34.985Z,53.20
2019-02-06T10:33:31.198Z,53.00
2019-02-06T10:35:59.821Z,53.10
2019-02-06T10:38:27.762Z,52.80
2019-02-06T10:40:55.988Z,51.70
2019-02-06T10:43:31.702Z,50.40
2019-02-06T10:48:21.717Z,50.90
2019-02-06T10:50:51.032Z,48.80
2019-02-06T10:53:19.390Z,47.00
2019-02-06T10:55:49.137Z,45.50
2019-02-06T10:58:17.744Z,45.50
2019-02-06T11:00:53.735Z,44.10
2019-02-06T11:05:50.382Z,54.00
2019-02-06T11:10:48.119Z,38.70
2019-02-06T11:13:19.661Z,37.80
2019-02-06T11:15:48.034Z,37.00
2019-02-06T11:18:16.380Z,46.30
2019-02-06T11:23:11.556Z,39.00
2019-02-06T11:30:36.087Z,43.30
2019-02-06T11:35:33.323Z,37.80
2019-02-06T11:40:31.119Z,30.00
2019-02-06T11:42:59.373Z,29.30
2019-02-06T11:45:30.148Z,33.30
2019-02-06T11:47:58.625Z,28.70
2019-02-06T11:53:00.977Z,29.70
2019-02-06T11:57:57.373Z,34.80
2019-02-06T12:08:05.123Z,38.40
2019-02-06T12:10:33.599Z,39.30
2019-02-06T12:15:30.231Z,42.50
2019-02-06T12:17:58.735Z,41.20
2019-02-06T12:20:27.279Z,39.70
2019-02-06T12:22:56.086Z,39.50
2019-02-06T12:27:52.835Z,36.90
2019-02-06T12:35:20.304Z,37.10
2019-02-06T12:37:48.818Z,38.00
2019-02-06T12:42:47.109Z,36.20
2019-02-06T12:45:15.924Z,35.10
2019-02-06T12:47:44.106Z,34.20
2019-02-06T12:52:40.632Z,34.50
2019-02-06T12:55:11.063Z,35.40
2019-02-06T12:57:41.910Z,36.40
2019-02-06T13:00:14.553Z,37.70
2019-02-06T13:02:42.462Z,38.50
2019-02-06T13:05:10.833Z,39.30
2019-02-06T13:07:38.667Z,40.50
2019-02-06T13:12:34.093Z,42.40
2019-02-06T13:15:02.362Z,42.20
2019-02-06T13:17:30.259Z,41.70
2019-02-06T13:19:58.632Z,40.60
2019-02-06T13:22:27.253Z,38.40
2019-02-06T13:32:17.287Z,40.10
2019-02-06T13:34:44.936Z,41.30
2019-02-06T13:37:13.604Z,42.10
2019-02-06T13:42:10.655Z,57.10
2019-02-06T13:44:41.413Z,42.70
2019-02-06T13:47:08.266Z,53.70
2019-02-06T13:52:17.019Z,48.10
2019-02-06T14:07:05.101Z,46.90
2019-02-06T14:09:34.205Z,43.70
2019-02-06T14:14:30.242Z,43.50
2019-02-06T14:16:57.836Z,46.40
2019-02-06T14:19:26.060Z,46.00
2019-02-06T14:21:54.372Z,45.70
2019-02-06T14:24:42.724Z,48.80
2019-02-06T14:44:31.441Z,43.90
2019-02-06T15:04:24.663Z,46.50
2019-02-06T15:07:33.906Z,48.60
2019-02-06T15:10:42.944Z,49.60
2019-02-06T15:13:27.992Z,50.50
2019-02-06T15:22:11.104Z,49.20
2019-02-06T15:36:04.076Z,52.50
2019-02-06T15:39:22.154Z,53.20
2019-02-06T15:44:50.791Z,54.80
2019-02-06T15:47:44.650Z,54.30
2019-02-06T15:50:50.164Z,55.60
2019-02-06T15:56:37.858Z,56.00
2019-02-06T15:59:16.539Z,56.30
2019-02-06T16:02:00.012Z,56.70
2019-02-06T16:05:34.334Z,57.30
2019-02-06T16:08:46.065Z,57.50
2019-02-06T16:17:40.644Z,58.20
2019-02-06T16:20:32.866Z,58.50
2019-02-06T16:23:24.491Z,58.80
2019-02-06T16:26:29.223Z,61.00
2019-02-06T16:40:48.580Z,61.40
2019-02-06T16:51:54.321Z,60.70
2019-02-06T16:57:36.587Z,60.80
2019-02-06T17:03:49.542Z,63.30
2019-02-06T17:06:40.723Z,63.80
2019-02-06T17:09:48.013Z,63.20
2019-02-06T17:12:53.739Z,62.00
2019-02-06T17:15:50.889Z,63.00
2019-02-06T17:25:05.284Z,66.60
2019-02-06T17:28:13.676Z,62.30
2019-02-06T17:31:09.076Z,64.00
2019-02-06T17:37:24.722Z,63.80
2019-02-06T17:43:05.496Z,63.60
2019-02-06T17:46:20.485Z,64.20
2019-02-06T17:51:50.871Z,63.00
2019-02-06T17:54:49.860Z,63.50
2019-02-06T18:07:10.450Z,63.70
2019-02-06T18:12:06.143Z,64.20
2019-02-06T18:14:34.445Z,64.10
2019-02-06T18:17:04.614Z,64.10
2019-02-06T18:19:37.339Z,64.20
2019-02-06T18:22:07.237Z,64.40
2019-02-06T18:24:37.682Z,64.80
2019-02-06T18:29:36.564Z,67.00
2019-02-06T18:34:43.167Z,65.00
2019-02-06T18:37:13.906Z,64.90
2019-02-06T18:39:42.759Z,65.00
2019-02-06T18:44:43.805Z,65.50
2019-02-06T18:47:12.915Z,66.10
2019-02-06T18:49:44.291Z,66.80
2019-02-06T18:57:17.884Z,72.60
2019-02-06T18:59:46.631Z,66.00
2019-02-06T19:02:14.953Z,70.10
2019-02-06T19:04:43.467Z,70.30
2019-02-06T19:07:11.403Z,72.30
2019-02-06T19:29:29.308Z,76.90
2019-02-06T19:34:25.545Z,78.50
2019-02-06T19:36:55.570Z,76.40
2019-02-06T19:49:17.279Z,76.40
2019-02-06T19:54:13.940Z,81.10
2019-02-06T19:56:42.525Z,82.00
2019-02-06T19:59:13.110Z,73.60
2019-02-06T20:01:42.194Z,76.10
2019-02-06T20:04:12.278Z,84.00
2019-02-06T20:11:39.280Z,81.50
2019-02-06T20:16:36.364Z,75.10
2019-02-06T20:19:04.943Z,76.00
2019-02-06T20:24:01.951Z,85.10
2019-02-06T20:29:02.028Z,83.20
2019-02-06T20:31:31.270Z,80.90
2019-02-06T20:34:00.272Z,80.00
2019-02-06T20:43:55.683Z,85.90
2019-02-06T20:46:25.626Z,79.10
2019-02-06T20:48:54.037Z,86.80
2019-02-06T20:56:18.781Z,70.00
2019-02-06T21:06:13.179Z,69.10
2019-02-06T21:16:08.328Z,69.80
2019-02-06T21:26:11.166Z,85.20
2019-02-06T21:28:42.891Z,87.90
2019-02-06T21:31:14.699Z,84.60
2019-02-06T21:59:16.407Z,91.20
2019-02-06T22:06:54.233Z,90.30
2019-02-06T22:09:24.486Z,86.50
2019-02-06T22:31:45.717Z,69.80
2019-02-06T22:49:51.622Z,86.60
2019-02-06T22:54:47.452Z,82.00
2019-02-06T23:02:12.295Z,83.30
2019-02-06T23:21:55.676Z,70.50
2019-02-06T23:26:54.736Z,73.50
2019-02-06T23:29:22.519Z,77.30
